createdAt,value
2018-09-17T00:00:52.789Z,16.27
2018-09-17T00:01:52.790Z,16.45
2018-09-17T00:02:52.778Z,16.33
2018-09-17T00:03:52.760Z,16.15
2018-09-17T00:04:53.109Z,16.23
2018-09-17T00:05:52.779Z,16.17
2018-09-17T00:06:52.732Z,16.20
2018-09-17T00:07:52.717Z,16.20
2018-09-17T00:08:52.706Z,16.15
2018-09-17T00:09:52.698Z,16.12
2018-09-17T00:10:52.694Z,16.14
2018-09-17T00:11:52.672Z,16.15
2018-09-17T00:12:52.654Z,16.11
2018-09-17T00:13:52.642Z,16.15
2018-09-17T00:14:52.702Z,16.12
2018-09-17T00:15:52.623Z,16.11
2018-09-17T00:16:52.604Z,16.05
2018-09-17T00:17:52.607Z,16.02
2018-09-17T00:18:52.592Z,16.01
2018-09-17T00:19:52.575Z,16.01
2018-09-17T00:20:52.595Z,16.09
2018-09-17T00:21:52.553Z,16.08
2018-09-17T00:22:52.549Z,16.07
2018-09-17T00:23:52.531Z,16.00
2018-09-17T00:24:52.532Z,16.02
2018-09-17T00:25:52.537Z,16.02
2018-09-17T00:26:52.495Z,16.02
2018-09-17T00:27:52.488Z,16.08
2018-09-17T00:28:52.477Z,16.05
2018-09-17T00:29:52.462Z,16.08
2018-09-17T00:30:52.514Z,16.02
2018-09-17T00:31:52.431Z,16.02
2018-09-17T00:32:52.428Z,15.97
2018-09-17T00:33:52.413Z,16.05
2018-09-17T00:34:52.408Z,15.96
2018-09-17T00:35:52.389Z,16.00
2018-09-17T00:36:52.400Z,15.97
2018-09-17T00:37:52.371Z,15.92
2018-09-17T00:38:52.361Z,15.90
2018-09-17T00:39:52.344Z,15.89
2018-09-17T00:40:52.364Z,15.89
2018-09-17T00:41:52.318Z,15.83
2018-09-17T00:42:52.311Z,15.82
2018-09-17T00:43:52.296Z,15.84
2018-09-17T00:44:52.274Z,15.82
2018-09-17T00:45:52.277Z,15.86
2018-09-17T00:46:52.292Z,15.78
2018-09-17T00:47:52.254Z,15.83
2018-09-17T00:48:52.241Z,15.78
2018-09-17T00:49:52.217Z,15.80
2018-09-17T00:50:52.261Z,15.83
2018-09-17T00:51:52.203Z,15.76
2018-09-17T00:52:52.269Z,15.75
2018-09-17T00:53:52.178Z,15.76
2018-09-17T00:54:52.171Z,15.78
2018-09-17T00:55:52.152Z,15.80
2018-09-17T00:56:52.130Z,15.82
2018-09-17T00:57:52.217Z,15.83
2018-09-17T00:58:52.156Z,15.78
2018-09-17T00:59:52.112Z,15.74
2018-09-17T01:00:52.095Z,15.74
2018-09-17T01:01:52.085Z,15.69
2018-09-17T01:02:52.069Z,15.71
2018-09-17T01:03:52.082Z,15.78
2018-09-17T01:04:52.046Z,15.71
2018-09-17T01:05:52.030Z,15.68
2018-09-17T01:06:52.022Z,15.64
2018-09-17T01:07:52.016Z,15.64
2018-09-17T01:08:52.028Z,15.56
2018-09-17T01:09:51.988Z,15.65
2018-09-17T01:10:51.984Z,15.65
2018-09-17T01:11:51.969Z,15.67
2018-09-17T01:12:51.948Z,15.64
2018-09-17T01:13:51.936Z,15.67
2018-09-17T01:14:51.932Z,15.68
2018-09-17T01:15:51.908Z,15.64
2018-09-17T01:16:51.908Z,15.57
2018-09-17T01:17:51.884Z,15.54
2018-09-17T01:18:51.869Z,15.54
2018-09-17T01:19:51.865Z,15.53
2018-09-17T01:20:51.855Z,15.54
2018-09-17T01:21:51.853Z,15.50
2018-09-17T01:22:51.837Z,15.49
2018-09-17T01:23:51.828Z,15.51
2018-09-17T01:24:51.807Z,15.46
2018-09-17T01:25:51.800Z,15.50
2018-09-17T01:26:51.785Z,15.41
2018-09-17T01:27:51.773Z,15.47
2018-09-17T01:28:51.758Z,15.44
2018-09-17T01:29:51.756Z,15.46
2018-09-17T01:30:51.731Z,15.47
2018-09-17T01:31:51.713Z,15.46
2018-09-17T01:32:51.705Z,15.50
2018-09-17T01:33:51.726Z,15.56
2018-09-17T01:34:51.695Z,15.50
2018-09-17T01:35:51.676Z,15.51
2018-09-17T01:36:51.663Z,15.53
2018-09-17T01:37:51.642Z,15.51
2018-09-17T01:38:51.640Z,15.50
2018-09-17T01:39:51.654Z,15.46
2018-09-17T01:40:51.610Z,15.51
2018-09-17T01:41:51.606Z,15.47
2018-09-17T01:42:51.584Z,15.47
2018-09-17T01:43:51.582Z,15.51
2018-09-17T01:44:51.601Z,15.43
2018-09-17T01:45:51.552Z,15.44
2018-09-17T01:46:51.617Z,15.51
2018-09-17T01:47:51.532Z,15.49
2018-09-17T01:48:51.513Z,15.34
2018-09-17T01:49:51.501Z,15.39
2018-09-17T01:50:51.487Z,15.35
2018-09-17T01:51:51.476Z,15.28
2018-09-17T01:52:51.499Z,15.27
2018-09-17T01:53:51.456Z,15.19
2018-09-17T01:54:51.444Z,15.27
2018-09-17T01:55:51.428Z,15.31
2018-09-17T01:56:51.425Z,15.27
2018-09-17T01:57:51.433Z,15.32
2018-09-17T01:58:51.390Z,15.31
2018-09-17T01:59:51.383Z,15.35
2018-09-17T02:00:51.367Z,15.29
2018-09-17T02:01:51.362Z,15.29
2018-09-17T02:02:51.373Z,15.29
2018-09-17T02:03:51.331Z,15.32
2018-09-17T02:04:51.314Z,15.21
2018-09-17T02:05:51.298Z,15.23
2018-09-17T02:06:51.298Z,15.20
2018-09-17T02:07:51.366Z,15.21
2018-09-17T02:08:51.355Z,15.19
2018-09-17T02:09:51.336Z,15.14
2018-09-17T02:10:51.237Z,15.14
2018-09-17T02:11:51.232Z,15.14
2018-09-17T02:12:51.440Z,15.17
2018-09-17T02:13:51.215Z,15.17
2018-09-17T02:14:51.202Z,15.13
2018-09-17T02:15:51.180Z,15.17
2018-09-17T02:16:51.169Z,15.14
2018-09-17T02:17:51.472Z,15.16
2018-09-17T02:18:51.136Z,15.13
2018-09-17T02:19:51.141Z,15.13
2018-09-17T02:20:51.114Z,15.17
2018-09-17T02:21:51.105Z,15.02
2018-09-17T02:22:51.097Z,15.07
2018-09-17T02:23:51.119Z,14.99
2018-09-17T02:24:51.074Z,15.13
2018-09-17T02:25:51.050Z,14.99
2018-09-17T02:26:51.048Z,15.01
2018-09-17T02:27:51.043Z,14.99
2018-09-17T02:28:51.025Z,15.16
2018-09-17T02:29:51.016Z,15.13
2018-09-17T02:30:50.994Z,15.11
2018-09-17T02:31:50.982Z,15.20
2018-09-17T02:32:51.002Z,15.13
2018-09-17T02:33:50.959Z,15.14
2018-09-17T02:34:50.939Z,15.07
2018-09-17T02:35:50.925Z,15.14
2018-09-17T02:36:50.953Z,15.11
2018-09-17T02:37:50.909Z,15.10
2018-09-17T02:38:50.897Z,15.14
2018-09-17T02:39:50.885Z,15.17
2018-09-17T02:40:50.900Z,15.17
2018-09-17T02:41:50.869Z,15.13
2018-09-17T02:42:50.851Z,15.14
2018-09-17T02:43:50.828Z,15.11
2018-09-17T02:44:50.829Z,15.03
2018-09-17T02:45:50.801Z,15.10
2018-09-17T02:46:51.005Z,15.06
2018-09-17T02:47:50.786Z,15.14
2018-09-17T02:48:50.779Z,15.14
2018-09-17T02:49:50.767Z,15.13
2018-09-17T02:50:50.746Z,15.16
2018-09-17T02:51:50.732Z,15.20
2018-09-17T02:52:50.755Z,15.14
2018-09-17T02:53:50.714Z,15.14
2018-09-17T02:54:50.690Z,15.13
2018-09-17T02:55:50.682Z,15.13
2018-09-17T02:56:50.934Z,15.13
2018-09-17T02:57:50.672Z,15.03
2018-09-17T02:58:50.655Z,15.01
2018-09-17T02:59:50.638Z,15.01
2018-09-17T03:00:50.621Z,15.10
2018-09-17T03:01:50.612Z,14.98
2018-09-17T03:02:50.631Z,15.13
2018-09-17T03:03:50.588Z,15.07
2018-09-17T03:04:50.603Z,15.16
2018-09-17T03:05:50.555Z,15.13
2018-09-17T03:06:50.540Z,15.11
2018-09-17T03:07:50.536Z,15.01
2018-09-17T03:08:50.531Z,15.03
2018-09-17T03:09:50.563Z,15.01
2018-09-17T03:10:50.502Z,14.98
2018-09-17T03:11:50.492Z,14.96
2018-09-17T03:12:50.480Z,14.95
2018-09-17T03:13:50.465Z,14.91
2018-09-17T03:14:50.453Z,14.92
2018-09-17T03:15:50.514Z,14.95
2018-09-17T03:16:50.433Z,14.95
2018-09-17T03:17:50.418Z,14.95
2018-09-17T03:18:50.400Z,14.91
2018-09-17T03:19:50.394Z,14.95
2018-09-17T03:20:50.374Z,14.95
2018-09-17T03:21:50.367Z,14.98
2018-09-17T03:22:50.355Z,14.81
2018-09-17T03:23:50.334Z,14.92
2018-09-17T03:24:50.325Z,14.80
2018-09-17T03:25:50.301Z,14.84
2018-09-17T03:26:50.308Z,14.86
2018-09-17T03:27:50.286Z,14.89
2018-09-17T03:28:50.277Z,14.86
2018-09-17T03:29:50.266Z,14.86
2018-09-17T03:30:50.255Z,14.88
2018-09-17T03:31:50.225Z,14.92
2018-09-17T03:32:50.223Z,14.80
2018-09-17T03:33:50.238Z,14.83
2018-09-17T03:34:50.962Z,14.80
2018-09-17T03:35:50.184Z,14.77
2018-09-17T03:36:50.180Z,14.89
2018-09-17T03:37:50.173Z,14.89
2018-09-17T03:38:50.146Z,14.80
2018-09-17T03:39:50.142Z,14.80
2018-09-17T03:40:50.191Z,14.88
2018-09-17T03:41:50.114Z,14.84
2018-09-17T03:42:50.104Z,14.83
2018-09-17T03:43:50.076Z,14.80
2018-09-17T03:44:50.073Z,14.77
2018-09-17T03:45:50.068Z,14.83
2018-09-17T03:46:50.076Z,14.73
2018-09-17T03:47:50.040Z,14.72
2018-09-17T03:48:50.102Z,14.75
2018-09-17T03:49:50.012Z,14.70
2018-09-17T03:50:49.992Z,14.68
2018-09-17T03:51:49.978Z,14.69
2018-09-17T03:52:49.975Z,14.68
2018-09-17T03:53:49.963Z,14.65
2018-09-17T03:54:49.976Z,14.72
2018-09-17T03:55:49.934Z,14.69
2018-09-17T03:56:49.922Z,14.62
2018-09-17T03:57:49.907Z,14.65
2018-09-17T03:58:49.893Z,14.61
2018-09-17T03:59:49.909Z,14.65
2018-09-17T04:00:49.876Z,14.60
2018-09-17T04:01:49.870Z,14.61
2018-09-17T04:02:49.840Z,14.64
2018-09-17T04:03:49.830Z,14.60
2018-09-17T04:04:49.858Z,14.65
2018-09-17T04:05:49.799Z,14.60
2018-09-17T04:06:49.788Z,14.57
2018-09-17T04:07:49.784Z,14.64
2018-09-17T04:08:49.772Z,14.52
2018-09-17T04:09:49.759Z,14.52
2018-09-17T04:10:49.739Z,14.55
2018-09-17T04:11:49.767Z,14.50
2018-09-17T04:12:49.718Z,14.51
2018-09-17T04:13:49.699Z,14.60
2018-09-17T04:14:49.682Z,14.55
2018-09-17T04:15:49.675Z,14.55
2018-09-17T04:16:49.701Z,14.51
2018-09-17T04:17:49.685Z,14.52
2018-09-17T04:18:49.638Z,14.51
2018-09-17T04:19:49.625Z,14.52
2018-09-17T04:20:49.617Z,14.52
2018-09-17T04:21:49.601Z,14.51
2018-09-17T04:22:49.621Z,14.46
2018-09-17T04:23:49.572Z,14.50
2018-09-17T04:24:49.553Z,14.52
2018-09-17T04:25:49.545Z,14.45
2018-09-17T04:26:49.541Z,14.47
2018-09-17T04:27:49.578Z,14.50
2018-09-17T04:28:49.519Z,14.51
2018-09-17T04:29:49.498Z,14.52
2018-09-17T04:30:49.490Z,14.46
2018-09-17T04:31:49.474Z,14.54
2018-09-17T04:32:49.461Z,14.47
2018-09-17T04:33:49.446Z,14.55
2018-09-17T04:34:49.429Z,14.50
2018-09-17T04:35:49.428Z,14.57
2018-09-17T04:36:49.408Z,14.51
2018-09-17T04:37:49.389Z,14.55
2018-09-17T04:38:49.405Z,14.50
2018-09-17T04:39:49.440Z,14.57
2018-09-17T04:40:49.346Z,14.50
2018-09-17T04:41:49.344Z,14.51
2018-09-17T04:42:49.333Z,14.33
2018-09-17T04:43:49.538Z,14.42
2018-09-17T04:44:49.306Z,14.42
2018-09-17T04:45:49.286Z,14.36
2018-09-17T04:46:49.275Z,14.40
2018-09-17T04:47:49.256Z,14.40
2018-09-17T04:48:49.262Z,14.36
2018-09-17T04:49:49.272Z,14.43
2018-09-17T04:50:49.224Z,14.42
2018-09-17T04:51:49.218Z,14.32
2018-09-17T04:52:49.211Z,14.40
2018-09-17T04:53:49.232Z,14.39
2018-09-17T04:54:49.175Z,14.45
2018-09-17T04:55:49.172Z,14.39
2018-09-17T04:56:49.158Z,14.39
2018-09-17T04:57:49.135Z,14.45
2018-09-17T04:58:49.159Z,14.42
2018-09-17T04:59:49.143Z,14.35
2018-09-17T05:00:49.100Z,14.36
2018-09-17T05:01:49.128Z,14.28
2018-09-17T05:02:49.062Z,14.29
2018-09-17T05:03:49.052Z,14.35
2018-09-17T05:04:49.051Z,14.28
2018-09-17T05:05:49.039Z,14.15
2018-09-17T05:06:49.012Z,14.21
2018-09-17T05:07:49.002Z,14.15
2018-09-17T05:08:48.993Z,14.21
2018-09-17T05:09:48.980Z,14.17
2018-09-17T05:10:49.005Z,14.14
2018-09-17T05:11:48.960Z,14.12
2018-09-17T05:12:48.950Z,14.21
2018-09-17T05:13:48.927Z,14.12
2018-09-17T05:14:48.916Z,14.14
2018-09-17T05:15:48.937Z,14.21
2018-09-17T05:16:48.895Z,14.18
2018-09-17T05:17:48.874Z,14.20
2018-09-17T05:18:48.861Z,14.17
2018-09-17T05:19:48.855Z,14.18
2018-09-17T05:20:48.933Z,14.15
2018-09-17T05:21:48.826Z,14.21
2018-09-17T05:22:49.083Z,14.18
2018-09-17T05:23:48.806Z,14.15
2018-09-17T05:24:48.788Z,14.28
2018-09-17T05:25:48.775Z,14.20
2018-09-17T05:26:48.812Z,14.21
2018-09-17T05:27:48.745Z,14.18
2018-09-17T05:28:48.741Z,14.25
2018-09-17T05:29:48.724Z,14.18
2018-09-17T05:30:48.708Z,14.18
2018-09-17T05:31:48.690Z,14.22
2018-09-17T05:32:48.701Z,14.24
2018-09-17T05:33:48.664Z,14.18
2018-09-17T05:34:48.661Z,14.21
2018-09-17T05:35:48.641Z,14.24
2018-09-17T05:36:48.633Z,14.28
2018-09-17T05:37:48.895Z,14.32
2018-09-17T05:38:48.608Z,14.32
2018-09-17T05:39:48.592Z,14.25
2018-09-17T05:40:48.583Z,14.24
2018-09-17T05:41:48.565Z,14.18
2018-09-17T05:42:48.548Z,14.24
2018-09-17T05:43:48.545Z,14.24
2018-09-17T05:44:48.528Z,14.27
2018-09-17T05:45:48.524Z,14.29
2018-09-17T05:46:48.503Z,14.28
2018-09-17T05:47:48.519Z,14.27
2018-09-17T05:48:48.475Z,14.28
2018-09-17T05:49:48.462Z,14.28
2018-09-17T05:50:48.478Z,14.25
2018-09-17T05:51:48.435Z,14.24
2018-09-17T05:52:48.427Z,14.32
2018-09-17T05:53:48.484Z,14.36
2018-09-17T05:54:48.403Z,14.37
2018-09-17T05:55:48.383Z,14.45
2018-09-17T05:56:48.363Z,14.37
2018-09-17T05:57:48.365Z,14.40
2018-09-17T05:58:48.345Z,14.35
2018-09-17T05:59:48.365Z,14.40
2018-09-17T06:00:48.325Z,14.47
2018-09-17T06:01:48.311Z,14.36
2018-09-17T06:02:48.289Z,14.42
2018-09-17T06:03:48.312Z,14.40
2018-09-17T06:04:48.275Z,14.39
2018-09-17T06:05:48.292Z,14.45
2018-09-17T06:06:48.281Z,14.45
2018-09-17T06:07:48.235Z,14.43
2018-09-17T06:08:48.214Z,14.36
2018-09-17T06:09:48.258Z,14.39
2018-09-17T06:10:48.194Z,14.36
2018-09-17T06:11:48.269Z,14.47
2018-09-17T06:12:48.169Z,14.36
2018-09-17T06:13:48.153Z,14.46
2018-09-17T06:14:48.143Z,14.43
2018-09-17T06:15:48.156Z,14.43
2018-09-17T06:16:48.117Z,14.46
2018-09-17T06:17:48.110Z,14.52
2018-09-17T06:18:48.145Z,14.52
2018-09-17T06:19:48.075Z,14.57
2018-09-17T06:20:48.062Z,14.55
2018-09-17T06:21:48.052Z,14.60
2018-09-17T06:22:48.037Z,14.61
2018-09-17T06:23:48.077Z,14.51
2018-09-17T06:24:48.010Z,14.55
2018-09-17T06:25:48.006Z,14.58
2018-09-17T06:26:47.983Z,14.55
2018-09-17T06:27:47.969Z,14.60
2018-09-17T06:28:48.059Z,14.54
2018-09-17T06:29:47.976Z,14.65
2018-09-17T06:30:47.941Z,14.60
2018-09-17T06:31:47.924Z,14.61
2018-09-17T06:32:47.911Z,14.68
2018-09-17T06:33:47.896Z,14.64
2018-09-17T06:34:47.913Z,14.69
2018-09-17T06:35:47.876Z,14.62
2018-09-17T06:36:47.856Z,14.64
2018-09-17T06:37:47.851Z,14.73
2018-09-17T06:38:47.838Z,14.72
2018-09-17T06:39:47.824Z,14.80
2018-09-17T06:40:47.817Z,14.83
2018-09-17T06:41:47.787Z,14.84
2018-09-17T06:42:47.776Z,14.81
2018-09-17T06:43:47.776Z,14.83
2018-09-17T06:44:47.809Z,14.80
2018-09-17T06:45:47.798Z,14.77
2018-09-17T06:46:47.740Z,14.78
2018-09-17T06:47:47.709Z,14.70
2018-09-17T06:48:47.708Z,14.72
2018-09-17T06:49:47.692Z,14.77
2018-09-17T06:50:47.674Z,14.69
2018-09-17T06:51:47.697Z,14.75
2018-09-17T06:52:47.652Z,14.77
2018-09-17T06:53:47.687Z,14.72
2018-09-17T06:54:47.625Z,14.64
2018-09-17T06:55:47.611Z,14.62
2018-09-17T06:56:47.654Z,14.69
2018-09-17T06:57:47.582Z,14.75
2018-09-17T06:58:47.591Z,14.75
2018-09-17T06:59:47.572Z,14.83
2018-09-17T07:00:47.554Z,14.78
2018-09-17T07:01:47.547Z,14.78
2018-09-17T07:02:47.540Z,14.86
2018-09-17T07:03:47.527Z,14.81
2018-09-17T07:04:47.512Z,14.80
2018-09-17T07:05:47.496Z,14.80
2018-09-17T07:06:47.477Z,14.89
2018-09-17T07:07:47.508Z,14.83
2018-09-17T07:08:47.446Z,14.91
2018-09-17T07:09:47.447Z,14.91
2018-09-17T07:10:47.434Z,14.91
2018-09-17T07:11:47.408Z,14.84
2018-09-17T07:12:47.452Z,14.88
2018-09-17T07:13:47.391Z,14.88
2018-09-17T07:14:47.383Z,14.84
2018-09-17T07:15:47.373Z,14.88
2018-09-17T07:16:47.361Z,14.83
2018-09-17T07:17:47.348Z,14.86
2018-09-17T07:18:47.359Z,15.01
2018-09-17T07:19:47.318Z,15.01
2018-09-17T07:20:47.306Z,15.09
2018-09-17T07:21:47.298Z,15.14
2018-09-17T07:22:47.314Z,15.19
2018-09-17T07:23:47.295Z,15.19
2018-09-17T07:24:47.258Z,15.17
2018-09-17T07:25:47.242Z,15.14
2018-09-17T07:26:47.230Z,15.21
2018-09-17T07:27:47.216Z,15.27
2018-09-17T07:28:47.270Z,15.36
2018-09-17T07:29:47.195Z,15.38
2018-09-17T07:30:47.187Z,15.50
2018-09-17T07:31:47.176Z,15.44
2018-09-17T07:32:47.164Z,15.49
2018-09-17T07:33:47.160Z,15.51
2018-09-17T07:34:47.140Z,15.57
2018-09-17T07:35:47.123Z,15.51
2018-09-17T07:36:47.106Z,15.51
2018-09-17T07:37:47.104Z,15.54
2018-09-17T07:38:47.092Z,15.60
2018-09-17T07:39:47.093Z,15.67
2018-09-17T07:40:47.085Z,15.62
2018-09-17T07:41:47.063Z,15.59
2018-09-17T07:42:47.077Z,15.71
2018-09-17T07:43:47.035Z,15.76
2018-09-17T07:44:47.012Z,15.83
2018-09-17T07:45:47.018Z,15.89
2018-09-17T07:46:46.998Z,16.02
2018-09-17T07:47:47.052Z,16.08
2018-09-17T07:48:46.984Z,16.25
2018-09-17T07:49:46.968Z,16.33
2018-09-17T07:50:46.990Z,16.43
2018-09-17T07:51:46.931Z,16.49
2018-09-17T07:52:46.973Z,16.50
2018-09-17T07:53:46.924Z,16.45
2018-09-17T07:54:46.905Z,16.49
2018-09-17T07:55:46.947Z,16.61
2018-09-17T07:56:46.881Z,16.61
2018-09-17T07:57:46.890Z,16.67
2018-09-17T07:58:46.867Z,16.64
2018-09-17T07:59:46.855Z,16.66
2018-09-17T08:00:46.851Z,16.75
2018-09-17T08:01:46.887Z,16.76
2018-09-17T08:02:46.817Z,16.71
2018-09-17T08:03:46.806Z,16.67
2018-09-17T08:04:46.801Z,16.70
2018-09-17T08:05:46.855Z,16.70
2018-09-17T08:06:46.776Z,16.66
2018-09-17T08:07:46.794Z,16.67
2018-09-17T08:08:46.778Z,16.61
2018-09-17T08:09:46.734Z,16.57
2018-09-17T08:10:46.743Z,16.60
2018-09-17T08:11:46.713Z,16.53
2018-09-17T08:12:46.713Z,16.60
2018-09-17T08:13:46.732Z,16.57
2018-09-17T08:14:46.688Z,16.60
2018-09-17T08:15:46.668Z,16.63
2018-09-17T08:16:46.664Z,16.63
2018-09-17T08:17:46.656Z,16.64
2018-09-17T08:18:46.910Z,16.71
2018-09-17T08:19:46.698Z,16.68
2018-09-17T08:20:46.630Z,16.68
2018-09-17T08:21:46.623Z,16.75
2018-09-17T08:22:46.600Z,16.70
2018-09-17T08:23:46.599Z,16.71
2018-09-17T08:24:46.586Z,16.81
2018-09-17T08:25:46.568Z,16.73
2018-09-17T08:26:46.559Z,16.75
2018-09-17T08:27:46.550Z,16.76
2018-09-17T08:28:46.540Z,16.89
2018-09-17T08:29:46.556Z,16.82
2018-09-17T08:30:46.509Z,16.88
2018-09-17T08:31:46.514Z,16.96
2018-09-17T08:32:46.492Z,17.03
2018-09-17T08:33:46.488Z,16.88
2018-09-17T08:34:46.488Z,17.08
2018-09-17T08:35:46.458Z,17.04
2018-09-17T08:36:46.476Z,17.06
2018-09-17T08:37:46.442Z,17.15
2018-09-17T08:38:46.427Z,17.14
2018-09-17T08:39:46.419Z,17.15
2018-09-17T08:40:46.408Z,17.28
2018-09-17T08:41:46.401Z,17.33
2018-09-17T08:42:46.394Z,17.34
2018-09-17T08:43:46.380Z,17.40
2018-09-17T08:44:46.363Z,17.41
2018-09-17T08:45:46.362Z,17.44
2018-09-17T08:46:46.387Z,17.55
2018-09-17T08:47:46.366Z,17.48
2018-09-17T08:48:46.360Z,17.58
2018-09-17T08:49:46.308Z,17.70
2018-09-17T08:50:46.299Z,17.64
2018-09-17T08:51:46.289Z,17.72
2018-09-17T08:52:46.372Z,17.75
2018-09-17T08:53:46.352Z,17.84
2018-09-17T08:54:46.270Z,17.82
2018-09-17T08:55:46.263Z,17.82
2018-09-17T08:56:46.239Z,17.93
2018-09-17T08:57:46.240Z,17.84
2018-09-17T08:58:46.228Z,17.90
2018-09-17T08:59:46.265Z,18.00
2018-09-17T09:00:46.205Z,18.07
2018-09-17T09:01:46.200Z,18.08
2018-09-17T09:02:46.195Z,18.10
2018-09-17T09:03:46.177Z,18.15
2018-09-17T09:04:46.170Z,18.25
2018-09-17T09:05:46.216Z,18.26
2018-09-17T09:06:46.149Z,18.27
2018-09-17T09:07:46.141Z,18.30
2018-09-17T09:08:46.135Z,18.44
2018-09-17T09:09:46.126Z,18.52
2018-09-17T09:10:46.111Z,18.63
2018-09-17T09:11:46.112Z,18.81
2018-09-17T09:12:46.095Z,18.94
2018-09-17T09:13:46.084Z,19.06
2018-09-17T09:14:46.073Z,19.08
2018-09-17T09:15:46.062Z,18.98
2018-09-17T09:16:46.064Z,19.07
2018-09-17T09:17:46.052Z,18.98
2018-09-17T09:18:46.035Z,18.95
2018-09-17T09:19:46.029Z,19.04
2018-09-17T09:20:46.021Z,19.10
2018-09-17T09:21:46.050Z,19.06
2018-09-17T09:22:45.996Z,19.08
2018-09-17T09:23:45.983Z,19.10
2018-09-17T09:24:45.982Z,19.10
2018-09-17T09:25:45.975Z,19.11
2018-09-17T09:26:45.973Z,19.19
2018-09-17T09:27:45.952Z,19.13
2018-09-17T09:28:46.138Z,19.18
2018-09-17T09:29:45.944Z,19.21
2018-09-17T09:30:45.957Z,19.13
2018-09-17T09:31:45.930Z,19.19
2018-09-17T09:32:45.909Z,19.16
2018-09-17T09:33:45.898Z,19.21
2018-09-17T09:34:45.904Z,19.31
2018-09-17T09:35:45.888Z,19.25
2018-09-17T09:36:45.879Z,19.32
2018-09-17T09:37:45.870Z,19.33
2018-09-17T09:38:45.899Z,19.43
2018-09-17T09:39:45.848Z,19.48
2018-09-17T09:40:45.842Z,19.50
2018-09-17T09:41:45.838Z,19.54
2018-09-17T09:42:45.824Z,19.63
2018-09-17T09:43:45.830Z,19.62
2018-09-17T09:44:45.811Z,19.66
2018-09-17T09:45:45.789Z,19.69
2018-09-17T09:46:45.795Z,19.73
2018-09-17T09:47:45.787Z,19.83
2018-09-17T09:48:45.771Z,19.83
2018-09-17T09:49:45.804Z,19.94
2018-09-17T09:50:45.755Z,19.96
2018-09-17T09:51:45.748Z,19.92
2018-09-17T09:52:45.791Z,19.94
2018-09-17T09:53:45.747Z,20.03
2018-09-17T09:54:45.726Z,20.11
2018-09-17T09:55:45.715Z,20.06
2018-09-17T09:56:45.708Z,20.20
2018-09-17T09:57:45.704Z,20.28
2018-09-17T09:58:45.762Z,20.33
2018-09-17T09:59:45.678Z,20.33
2018-09-17T10:00:45.676Z,20.33
2018-09-17T10:01:45.679Z,20.38
2018-09-17T10:02:45.649Z,20.43
2018-09-17T10:03:45.639Z,20.47
2018-09-17T10:04:45.672Z,20.55
2018-09-17T10:05:45.669Z,20.58
2018-09-17T10:06:45.629Z,20.57
2018-09-17T10:07:45.613Z,20.61
2018-09-17T10:08:45.598Z,20.59
2018-09-17T10:09:45.639Z,20.69
2018-09-17T10:10:45.596Z,20.76
2018-09-17T10:11:45.592Z,20.67
2018-09-17T10:12:45.569Z,20.66
2018-09-17T10:13:45.567Z,20.72
2018-09-17T10:14:45.625Z,20.80
2018-09-17T10:15:45.553Z,20.67
2018-09-17T10:16:45.550Z,20.73
2018-09-17T10:17:45.528Z,20.85
2018-09-17T10:18:45.533Z,21.01
2018-09-17T10:19:45.524Z,20.98
2018-09-17T10:20:45.546Z,20.99
2018-09-17T10:21:45.503Z,20.99
2018-09-17T10:22:45.492Z,20.99
2018-09-17T10:23:45.489Z,21.04
2018-09-17T10:24:45.529Z,21.07
2018-09-17T10:25:45.463Z,20.99
2018-09-17T10:26:45.476Z,21.07
2018-09-17T10:27:45.459Z,21.09
2018-09-17T10:28:45.450Z,21.17
2018-09-17T10:29:45.442Z,21.21
2018-09-17T10:30:45.460Z,21.21
2018-09-17T10:31:45.423Z,21.22
2018-09-17T10:32:45.447Z,21.21
2018-09-17T10:33:45.414Z,21.19
2018-09-17T10:34:45.403Z,21.29
2018-09-17T10:35:45.395Z,21.32
2018-09-17T10:36:45.391Z,21.27
2018-09-17T10:37:45.409Z,21.40
2018-09-17T10:38:45.375Z,21.34
2018-09-17T10:39:45.364Z,21.37
2018-09-17T10:40:45.355Z,21.44
2018-09-17T10:41:45.341Z,21.40
2018-09-17T10:42:45.362Z,21.40
2018-09-17T10:43:45.332Z,21.38
2018-09-17T10:44:45.311Z,21.31
2018-09-17T10:45:45.320Z,21.38
2018-09-17T10:46:45.301Z,21.38
2018-09-17T10:47:45.322Z,21.32
2018-09-17T10:48:45.282Z,21.34
2018-09-17T10:49:45.323Z,21.44
2018-09-17T10:50:45.279Z,21.52
2018-09-17T10:51:45.269Z,21.49
2018-09-17T10:52:45.259Z,21.53
2018-09-17T10:53:45.248Z,21.65
2018-09-17T10:54:45.274Z,21.62
2018-09-17T10:55:45.236Z,21.64
2018-09-17T10:56:45.234Z,21.64
2018-09-17T10:57:45.249Z,21.64
2018-09-17T10:58:45.218Z,21.72
2018-09-17T10:59:45.201Z,21.64
2018-09-17T11:00:45.202Z,21.58
2018-09-17T11:01:45.258Z,21.61
2018-09-17T11:02:45.175Z,21.74
2018-09-17T11:03:45.177Z,21.64
2018-09-17T11:04:45.163Z,21.71
2018-09-17T11:05:45.161Z,21.71
2018-09-17T11:06:45.161Z,21.77
2018-09-17T11:07:45.185Z,21.72
2018-09-17T11:08:45.139Z,21.69
2018-09-17T11:09:45.128Z,21.69
2018-09-17T11:10:45.129Z,21.77
2018-09-17T11:11:45.114Z,21.74
2018-09-17T11:12:45.139Z,21.69
2018-09-17T11:13:45.117Z,21.75
2018-09-17T11:14:45.125Z,21.83
2018-09-17T11:15:45.091Z,21.92
2018-09-17T11:16:45.080Z,21.94
2018-09-17T11:17:45.147Z,21.91
2018-09-17T11:18:45.097Z,22.09
2018-09-17T11:19:45.087Z,22.14
2018-09-17T11:20:45.050Z,22.09
2018-09-17T11:21:45.040Z,22.21
2018-09-17T11:22:45.037Z,22.10
2018-09-17T11:23:45.022Z,22.10
2018-09-17T11:24:45.076Z,22.21
2018-09-17T11:25:45.018Z,22.15
2018-09-17T11:26:45.019Z,22.12
2018-09-17T11:27:45.000Z,22.09
2018-09-17T11:28:44.994Z,22.07
2018-09-17T11:29:44.991Z,22.12
2018-09-17T11:30:45.005Z,22.22
2018-09-17T11:31:44.974Z,22.27
2018-09-17T11:32:44.970Z,22.25
2018-09-17T11:33:44.957Z,22.39
2018-09-17T11:34:44.980Z,22.36
2018-09-17T11:35:44.941Z,22.40
2018-09-17T11:36:44.965Z,22.39
2018-09-17T11:37:44.935Z,22.54
2018-09-17T11:38:44.908Z,22.58
2018-09-17T11:39:45.888Z,22.52
2018-09-17T11:40:44.934Z,22.58
2018-09-17T11:41:44.906Z,22.64
2018-09-17T11:42:44.900Z,22.64
2018-09-17T11:43:44.888Z,22.65
2018-09-17T11:44:44.879Z,22.68
2018-09-17T11:45:44.868Z,22.77
2018-09-17T11:46:44.860Z,22.83
2018-09-17T11:47:44.857Z,22.77
2018-09-17T11:48:44.852Z,22.83
2018-09-17T11:49:44.851Z,22.75
2018-09-17T11:50:44.837Z,22.83
2018-09-17T11:51:44.893Z,22.76
2018-09-17T11:52:44.811Z,22.83
2018-09-17T11:53:44.809Z,22.88
2018-09-17T11:54:44.803Z,22.91
2018-09-17T11:55:44.797Z,23.01
2018-09-17T11:56:44.798Z,23.05
2018-09-17T11:57:44.829Z,23.10
2018-09-17T11:58:44.772Z,23.07
2018-09-17T11:59:44.782Z,23.12
2018-09-17T12:00:44.763Z,23.25
2018-09-17T12:01:44.812Z,23.39
2018-09-17T12:02:44.811Z,23.70
2018-09-17T12:03:44.756Z,23.84
2018-09-17T12:04:44.746Z,24.09
2018-09-17T12:05:44.737Z,24.20
2018-09-17T12:06:44.735Z,24.24
2018-09-17T12:07:44.741Z,24.27
2018-09-17T12:08:44.730Z,24.24
2018-09-17T12:09:44.714Z,24.20
2018-09-17T12:10:44.717Z,24.21
2018-09-17T12:11:44.773Z,24.24
2018-09-17T12:12:44.703Z,24.12
2018-09-17T12:13:44.698Z,24.12
2018-09-17T12:14:44.700Z,24.02
2018-09-17T12:15:44.686Z,23.97
2018-09-17T12:16:44.679Z,24.00
2018-09-17T12:17:44.706Z,23.93
2018-09-17T12:18:44.671Z,23.91
2018-09-17T12:19:44.678Z,23.98
2018-09-17T12:20:44.668Z,24.00
2018-09-17T12:21:44.667Z,23.87
2018-09-17T12:22:44.658Z,23.95
2018-09-17T12:23:44.660Z,23.85
2018-09-17T12:24:44.643Z,23.97
2018-09-17T12:25:44.654Z,23.90
2018-09-17T12:26:44.637Z,23.83
2018-09-17T12:27:44.617Z,23.85
2018-09-17T12:28:44.626Z,23.88
2018-09-17T12:29:44.613Z,23.84
2018-09-17T12:30:44.606Z,23.84
2018-09-17T12:31:44.595Z,23.87
2018-09-17T12:32:44.599Z,23.78
2018-09-17T12:33:44.687Z,23.85
2018-09-17T12:34:44.591Z,23.80
2018-09-17T12:35:44.612Z,23.88
2018-09-17T12:36:44.569Z,23.87
2018-09-17T12:37:44.566Z,23.83
2018-09-17T12:38:44.567Z,23.80
2018-09-17T12:39:44.562Z,23.91
2018-09-17T12:40:44.589Z,23.84
2018-09-17T12:41:44.575Z,23.93
2018-09-17T12:42:44.539Z,24.00
2018-09-17T12:43:44.539Z,23.94
2018-09-17T12:44:44.545Z,24.02
2018-09-17T12:45:44.534Z,24.12
2018-09-17T12:46:44.547Z,24.28
2018-09-17T12:47:44.518Z,24.28
2018-09-17T12:48:44.509Z,24.37
2018-09-17T12:49:44.502Z,24.43
2018-09-17T12:50:44.505Z,24.52
2018-09-17T12:51:44.524Z,24.50
2018-09-17T12:52:44.514Z,24.43